METAR Data
IDs: Format: Raw Decoded Include TAF

Data at: 0824 UTC 03 Aug 2021

KLVK 030753Z AUTO 29006KT 10SM CLR 15/10 A3003 RMK AO2 SLP164 T01500100 403280128
KLVK 030653Z AUTO 30008KT 10SM CLR 16/10 A3003 RMK AO2 SLP165 T01610100
KLVK 030553Z AUTO 30008KT 10SM CLR 17/11 A3003 RMK AO2 SLP163 T01720106 10328 20172 51011
KLVK 030453Z AUTO 30008KT 10SM CLR 18/11 A3002 RMK AO2 SLP164 T01830106
KLVK 030353Z 30010KT 10SM CLR 20/10 A3001 RMK AO2 SLP159 T02000100
KLVK 030253Z 28009KT 10SM CLR 23/07 A2999 RMK AO2 SLP152 T02330072 55002
KLVK 030153Z 28010KT 10SM CLR 28/04 A2999 RMK AO2 SLP151 T02780039
KLVK 030053Z 30013KT 10SM CLR 31/03 A3000 RMK AO2 SLP153 T03060028
KLVK 022353Z 27011KT 10SM CLR 32/04 A3000 RMK AO2 SLP154 T03220044 10328 20217 56018
KLVK 022253Z VRB06KT 10SM CLR 32/07 A3001 RMK AO2 SLP159 T03220067
KLVK 022153Z 30007KT 10SM CLR 31/07 A3003 RMK AO2 SLP166 T03110072
KLVK 022053Z VRB05KT 10SM CLR 29/09 A3005 RMK AO2 SLP172 T02940089 58015
KLVK 021953Z VRB03KT 10SM CLR 27/10 A3007 RMK AO2 SLP179 T02720100
KLVK 021853Z 00000KT 10SM CLR 25/11 A3009 RMK AO2 SLP184 T02500111
KLVK 021753Z VRB05KT 10SM CLR 22/11 A3010 RMK AO2 SLP188 T02170111 10222 20128 58005
KLVK 021653Z VRB04KT 10SM CLR 18/12 A3010 RMK AO2 SLP191 T01780117
KLVK 021553Z 17004KT 10SM FEW014 16/12 A3011 RMK AO2 SLP193 T01610117
KLVK 021453Z 00000KT 10SM OVC013 15/12 A3011 RMK AO2 SLP194 T01500122 51015
KLVK 021353Z 23003KT 10SM BKN013 14/12 A3011 RMK AO2 SLP191 T01390117
KLVK 021339Z 00000KT 10SM BKN014 13/11 A3010 RMK AO2 T01330111
KLVK 021332Z AUTO 00000KT 10SM SCT014 13/11 A3010 RMK AO2 T01330111
KLVK 021315Z AUTO 00000KT 10SM BKN014 13/11 A3009 RMK AO2 T01330106
KLVK 021253Z AUTO 00000KT 10SM FEW016 13/11 A3008 RMK AO2 SLP184 T01330106
KLVK 021153Z AUTO 24003KT 10SM CLR 13/11 A3007 RMK AO2 SLP178 T01330106 10161 20133 56003
KLVK 021053Z AUTO 26005KT 10SM CLR 14/11 A3007 RMK AO2 SLP179 T01390111
KLVK 020953Z AUTO 28005KT 10SM CLR 14/12 A3007 RMK AO2 SLP178 T01390117
KLVK 020853Z AUTO 28008KT 10SM CLR 14/12 A3008 RMK AO2 SLP180 T01440117 50000
KLVK 020753Z AUTO 28007KT 10SM CLR 15/12 A3008 RMK AO2 SLP181 T01500117 402940139
KLVK 020653Z AUTO 29010KT 10SM CLR 16/12 A3008 RMK AO2 SLP182 T01560117
KLVK 020553Z AUTO 29008KT 10SM CLR 16/12 A3008 RMK AO2 SLP181 T01610117 10267 20161 51016
KLVK 020453Z 29009KT 10SM CLR 17/11 A3006 RMK AO2 SLP177 T01670111
KLVK 020353Z 28011KT 10SM CLR 17/11 A3005 RMK AO2 SLP171 T01720106
KLVK 020253Z 28014KT 10SM CLR 19/11 A3003 RMK AO2 SLP165 T01890106 53010
KLVK 020153Z 28016KT 10SM CLR 22/11 A3000 RMK AO2 SLP156 T02170106
KLVK 020053Z 29014KT 10SM CLR 24/11 A3000 RMK AO2 SLP154 T02440111
KLVK 012353Z 30015KT 10SM CLR 27/11 A3000 RMK AO2 SLP154 T02670111 10294 20217 56006
KLVK 012253Z 30013KT 10SM CLR 28/11 A3000 RMK AO2 SLP155 T02780111
KLVK 012153Z 29014KT 10SM CLR 29/11 A3001 RMK AO2 SLP157 T02890111
KLVK 012053Z 30011KT 10SM CLR 28/10 A3002 RMK AO2 SLP160 T02830100 57013